Time;durP1;ratioP1;P1;durP2;ratioP2;P2;SDS_P1;SDS_P2;PMS_P1;PMS_P2;Temp;Humidity;BMP_temperature;BMP_pressure;BME280_temperature;BME280_humidity;BME280_pressure;Samples;Min_cycle;Max_cycle;Signal;HPM_P1;HPM_P2
2023/12/14 00:01:31;;;;;;;35.92;12.40;;;;;;;;;;4981681;28;20608;-68
2023/12/14 00:03:56;;;;;;;31.58;11.57;;;;;;;;;;4981794;28;20445;-68
2023/12/14 00:06:21;;;;;;;34.77;12.93;;;;;;;;;;4976307;28;20101;-68
2023/12/14 00:08:46;;;;;;;32.83;13.13;;;;;;;;;;4980190;28;20262;-68
2023/12/14 00:11:11;;;;;;;40.50;13.97;;;;;;;;;;4984803;28;20284;-68
2023/12/14 00:13:37;;;;;;;36.43;14.23;;;;;;;;;;4982514;28;20262;-68
2023/12/14 00:16:03;;;;;;;38.67;15.88;;;;;;;;;;4977497;28;20261;-68
2023/12/14 00:18:28;;;;;;;32.45;15.57;;;;;;;;;;4979302;28;20101;-68
2023/12/14 00:20:53;;;;;;;47.88;16.40;;;;;;;;;;4981214;28;20508;-68
2023/12/14 00:23:19;;;;;;;48.30;19.02;;;;;;;;;;4981058;28;20498;-68
2023/12/14 00:25:44;;;;;;;44.08;17.38;;;;;;;;;;4980815;28;20014;-68
2023/12/14 00:28:09;;;;;;;54.90;17.07;;;;;;;;;;4987834;28;20611;-68
2023/12/14 00:30:34;;;;;;;48.35;18.25;;;;;;;;;;4980285;28;20254;-68
2023/12/14 00:33:00;;;;;;;50.23;18.67;;;;;;;;;;4982577;28;20089;-68
2023/12/14 00:35:25;;;;;;;51.23;20.47;;;;;;;;;;4983766;28;20286;-68
2023/12/14 00:37:50;;;;;;;56.37;19.67;;;;;;;;;;4981984;28;20277;-68
2023/12/14 00:40:15;;;;;;;50.37;19.40;;;;;;;;;;4984037;28;20328;-68
2023/12/14 00:42:40;;;;;;;53.40;19.17;;;;;;;;;;4987121;28;20340;-68
2023/12/14 00:45:06;;;;;;;54.37;20.27;;;;;;;;;;4981087;28;20278;-68
2023/12/14 00:47:31;;;;;;;65.40;19.90;;;;;;;;;;4979874;28;20630;-68
2023/12/14 00:49:56;;;;;;;62.57;22.53;;;;;;;;;;4984637;28;20489;-68
2023/12/14 00:52:21;;;;;;;48.22;19.77;;;;;;;;;;4981343;28;20250;-68
2023/12/14 00:54:46;;;;;;;68.07;22.83;;;;;;;;;;4981482;28;20026;-68
2023/12/14 00:57:11;;;;;;;62.92;20.77;;;;;;;;;;4988047;28;20277;-68
2023/12/14 00:59:37;;;;;;;67.97;23.38;;;;;;;;;;4963944;28;20027;-69
2023/12/14 01:02:02;;;;;;;61.80;21.47;;;;;;;;;;4979838;28;20155;-68
2023/12/14 01:04:27;;;;;;;69.32;22.35;;;;;;;;;;4977384;28;20341;-68
2023/12/14 01:06:52;;;;;;;65.40;21.92;;;;;;;;;;4983232;28;20041;-68
2023/12/14 01:09:17;;;;;;;68.88;22.75;;;;;;;;;;4987422;28;20018;-68
2023/12/14 01:11:43;;;;;;;62.92;21.65;;;;;;;;;;4989253;28;20015;-68
2023/12/14 01:14:08;;;;;;;59.80;21.37;;;;;;;;;;4983392;28;20038;-68
2023/12/14 01:16:33;;;;;;;70.67;22.30;;;;;;;;;;4980550;28;20258;-68
2023/12/14 01:18:58;;;;;;;80.83;23.67;;;;;;;;;;4984531;28;20792;-67
2023/12/14 01:21:23;;;;;;;63.13;22.02;;;;;;;;;;4983107;28;20365;-67
2023/12/14 01:23:49;;;;;;;65.43;21.60;;;;;;;;;;4977922;28;20501;-66
2023/12/14 01:26:14;;;;;;;58.00;21.60;;;;;;;;;;4987712;28;20359;-67
2023/12/14 01:28:39;;;;;;;67.60;22.33;;;;;;;;;;4967588;28;20093;-67
2023/12/14 01:31:04;;;;;;;73.43;23.67;;;;;;;;;;4978967;28;20504;-67
2023/12/14 01:33:29;;;;;;;62.97;22.95;;;;;;;;;;4977638;28;20329;-67
2023/12/14 01:35:55;;;;;;;78.13;24.10;;;;;;;;;;4975345;28;20572;-67
2023/12/14 01:38:20;;;;;;;68.87;23.03;;;;;;;;;;4983011;28;20277;-67
2023/12/14 01:40:45;;;;;;;76.60;24.13;;;;;;;;;;4989101;28;20770;-67
2023/12/14 01:43:10;;;;;;;72.17;24.50;;;;;;;;;;4986178;28;20323;-67
2023/12/14 01:45:36;;;;;;;76.10;25.20;;;;;;;;;;4978818;28;20784;-67
2023/12/14 01:48:01;;;;;;;70.65;23.02;;;;;;;;;;4981893;28;20037;-67
2023/12/14 01:50:27;;;;;;;73.55;22.98;;;;;;;;;;4974903;28;20413;-67
2023/12/14 01:52:53;;;;;;;79.37;26.57;;;;;;;;;;4988130;28;20141;-67
2023/12/14 01:55:18;;;;;;;85.50;23.60;;;;;;;;;;4988610;28;20296;-67
2023/12/14 01:57:43;;;;;;;81.60;24.53;;;;;;;;;;4983920;28;20685;-67
2023/12/14 02:00:15;;;;;;;83.57;24.90;;;;;;;;;;4973174;28;20305;-67
2023/12/14 02:02:40;;;;;;;79.45;24.90;;;;;;;;;;4983564;28;20917;-67
2023/12/14 02:05:05;;;;;;;90.60;26.53;;;;;;;;;;4975528;28;20034;-67
2023/12/14 02:07:30;;;;;;;84.05;24.75;;;;;;;;;;4979258;28;20266;-67
2023/12/14 02:09:56;;;;;;;85.33;25.67;;;;;;;;;;4984328;28;20109;-67
2023/12/14 02:12:21;;;;;;;73.03;26.40;;;;;;;;;;4974100;28;20258;-67
2023/12/14 02:14:48;;;;;;;78.07;24.37;;;;;;;;;;4984588;28;20372;-67
2023/12/14 02:17:13;;;;;;;82.35;24.35;;;;;;;;;;4988443;28;20273;-67
2023/12/14 02:19:38;;;;;;;85.57;25.08;;;;;;;;;;4989691;28;20370;-67
2023/12/14 02:22:04;;;;;;;92.43;25.23;;;;;;;;;;4981471;28;20110;-67
2023/12/14 02:24:29;;;;;;;89.25;24.23;;;;;;;;;;4973865;28;20340;-67
2023/12/14 02:26:54;;;;;;;99.50;25.37;;;;;;;;;;4974408;28;20046;-67
2023/12/14 02:29:19;;;;;;;84.18;25.83;;;;;;;;;;4972803;28;20350;-67
2023/12/14 02:31:46;;;;;;;90.82;25.50;;;;;;;;;;4982721;28;20018;-67
2023/12/14 02:34:11;;;;;;;90.80;24.75;;;;;;;;;;4985567;28;20027;-67
2023/12/14 02:36:36;;;;;;;86.47;25.02;;;;;;;;;;4977505;28;20382;-67
2023/12/14 02:39:02;;;;;;;94.03;23.80;;;;;;;;;;4982206;28;20035;-67
2023/12/14 02:41:27;;;;;;;103.43;24.45;;;;;;;;;;4976064;28;20265;-67
2023/12/14 02:43:52;;;;;;;77.97;22.67;;;;;;;;;;4980976;28;20409;-67
2023/12/14 02:46:18;;;;;;;75.13;22.70;;;;;;;;;;4974425;28;20270;-67
2023/12/14 02:48:43;;;;;;;73.40;21.02;;;;;;;;;;4988262;28;20269;-67
2023/12/14 02:51:12;;;;;;;68.38;19.80;;;;;;;;;;4980213;28;20031;-67
2023/12/14 02:53:37;;;;;;;58.60;17.40;;;;;;;;;;4973063;28;20031;-67
2023/12/14 02:56:02;;;;;;;69.60;20.20;;;;;;;;;;4976132;28;20441;-67
2023/12/14 02:58:28;;;;;;;72.95;19.73;;;;;;;;;;4975187;28;20269;-67
2023/12/14 03:00:53;;;;;;;73.10;20.73;;;;;;;;;;4983705;28;20018;-67
2023/12/14 03:03:18;;;;;;;66.10;19.67;;;;;;;;;;4989517;28;20034;-67
2023/12/14 03:05:43;;;;;;;69.27;21.00;;;;;;;;;;4990983;28;20289;-67
2023/12/14 03:08:08;;;;;;;65.68;20.35;;;;;;;;;;4985335;28;20760;-67
2023/12/14 03:10:34;;;;;;;68.28;22.52;;;;;;;;;;4978997;28;20408;-67
2023/12/14 03:12:59;;;;;;;71.47;20.17;;;;;;;;;;4986282;28;20030;-67
2023/12/14 03:15:24;;;;;;;65.70;21.13;;;;;;;;;;4986249;28;20449;-67
2023/12/14 03:17:49;;;;;;;62.10;19.88;;;;;;;;;;4991499;28;20261;-67
2023/12/14 03:20:14;;;;;;;63.13;20.23;;;;;;;;;;4983130;28;20751;-67
2023/12/14 03:22:40;;;;;;;72.25;20.23;;;;;;;;;;4984056;28;20261;-67
2023/12/14 03:25:05;;;;;;;71.60;20.73;;;;;;;;;;4985323;28;20088;-67
2023/12/14 03:27:31;;;;;;;64.25;20.13;;;;;;;;;;4978265;28;20019;-67
2023/12/14 03:29:56;;;;;;;65.93;19.90;;;;;;;;;;4976447;28;20035;-67
2023/12/14 03:32:21;;;;;;;64.67;20.80;;;;;;;;;;4982249;28;20328;-67
2023/12/14 03:34:46;;;;;;;61.03;19.20;;;;;;;;;;4979051;28;20266;-67
2023/12/14 03:37:11;;;;;;;60.78;19.13;;;;;;;;;;4980988;28;20420;-67
2023/12/14 03:39:36;;;;;;;53.63;19.57;;;;;;;;;;4983516;28;20108;-67
2023/12/14 03:42:02;;;;;;;56.65;18.30;;;;;;;;;;4985028;28;20289;-67
2023/12/14 03:44:27;;;;;;;51.30;19.38;;;;;;;;;;4991127;28;20030;-67
2023/12/14 03:46:54;;;;;;;46.70;15.82;;;;;;;;;;4991551;28;20018;-67
2023/12/14 03:49:19;;;;;;;46.45;14.63;;;;;;;;;;4992295;28;20030;-67
2023/12/14 03:51:44;;;;;;;36.88;12.35;;;;;;;;;;4992740;28;20398;-67
2023/12/14 03:54:09;;;;;;;35.85;13.15;;;;;;;;;;4988643;28;20077;-67
2023/12/14 03:56:34;;;;;;;36.60;13.73;;;;;;;;;;4991045;28;20030;-67
2023/12/14 03:59:00;;;;;;;37.13;13.27;;;;;;;;;;4988414;28;20269;-67
2023/12/14 04:01:25;;;;;;;29.70;11.93;;;;;;;;;;4986549;28;20396;-67
2023/12/14 04:03:50;;;;;;;31.90;11.45;;;;;;;;;;4999233;28;20108;-67
2023/12/14 04:06:15;;;;;;;23.87;9.77;;;;;;;;;;4995927;28;20511;-67
2023/12/14 04:08:41;;;;;;;31.67;11.60;;;;;;;;;;4991729;28;20336;-67
2023/12/14 04:11:07;;;;;;;29.33;11.32;;;;;;;;;;4996812;28;20490;-67
2023/12/14 04:13:32;;;;;;;26.25;9.55;;;;;;;;;;4980943;28;20482;-67
2023/12/14 04:15:57;;;;;;;24.65;10.10;;;;;;;;;;4989866;28;20489;-67
2023/12/14 04:18:22;;;;;;;28.13;11.68;;;;;;;;;;4991366;28;20094;-67
2023/12/14 04:20:48;;;;;;;30.23;11.68;;;;;;;;;;4991806;28;20026;-67
2023/12/14 04:23:13;;;;;;;28.67;11.03;;;;;;;;;;4990736;28;20057;-67
2023/12/14 04:25:38;;;;;;;35.40;13.13;;;;;;;;;;4990723;28;20776;-67
2023/12/14 04:28:03;;;;;;;35.20;14.03;;;;;;;;;;4978170;28;20262;-67
2023/12/14 04:30:28;;;;;;;44.55;13.98;;;;;;;;;;4985229;28;20682;-67
2023/12/14 04:32:54;;;;;;;36.57;15.40;;;;;;;;;;4991336;28;20018;-67
2023/12/14 04:35:21;;;;;;;35.28;15.85;;;;;;;;;;4990592;28;20693;-67
2023/12/14 04:37:47;;;;;;;39.85;15.32;;;;;;;;;;4991240;28;20106;-67
2023/12/14 04:40:12;;;;;;;46.37;18.07;;;;;;;;;;4977073;28;20105;-67
2023/12/14 04:42:37;;;;;;;48.70;18.52;;;;;;;;;;4985911;28;20779;-67
2023/12/14 04:45:02;;;;;;;53.80;19.83;;;;;;;;;;4990459;28;20551;-67
2023/12/14 04:47:28;;;;;;;47.72;18.33;;;;;;;;;;4990761;28;20254;-67
2023/12/14 04:49:53;;;;;;;60.05;21.33;;;;;;;;;;4991261;28;20018;-67
2023/12/14 04:52:19;;;;;;;55.03;20.45;;;;;;;;;;4989671;28;20023;-67
2023/12/14 04:54:44;;;;;;;67.13;22.50;;;;;;;;;;4989675;28;20026;-67
2023/12/14 04:57:09;;;;;;;67.23;23.97;;;;;;;;;;4977850;28;20291;-67
2023/12/14 04:59:34;;;;;;;63.45;21.40;;;;;;;;;;4979281;28;20388;-67
2023/12/14 05:01:59;;;;;;;69.80;24.23;;;;;;;;;;4979113;28;20027;-67
2023/12/14 05:04:24;;;;;;;66.63;22.47;;;;;;;;;;4986733;28;20397;-67
2023/12/14 05:06:50;;;;;;;65.37;24.03;;;;;;;;;;4990370;28;20257;-67
2023/12/14 05:09:15;;;;;;;71.17;25.20;;;;;;;;;;4987635;28;20331;-67
2023/12/14 05:11:40;;;;;;;69.23;24.77;;;;;;;;;;4978151;28;20345;-67
2023/12/14 05:14:05;;;;;;;68.40;24.27;;;;;;;;;;4982578;28;20261;-66
2023/12/14 05:16:31;;;;;;;72.60;24.15;;;;;;;;;;4984719;28;20076;-67
2023/12/14 05:18:57;;;;;;;67.05;24.80;;;;;;;;;;4983597;28;20596;-67
2023/12/14 05:21:22;;;;;;;73.93;25.10;;;;;;;;;;4990655;28;20033;-66
2023/12/14 05:23:47;;;;;;;72.82;24.15;;;;;;;;;;4986261;28;20030;-67
2023/12/14 05:26:12;;;;;;;55.60;21.90;;;;;;;;;;4978093;28;20026;-67
2023/12/14 05:28:37;;;;;;;69.75;22.67;;;;;;;;;;4980742;28;20050;-67
2023/12/14 05:31:03;;;;;;;64.63;22.93;;;;;;;;;;4981979;28;20018;-67
2023/12/14 05:33:29;;;;;;;62.72;23.42;;;;;;;;;;4991709;28;20371;-66
2023/12/14 05:35:54;;;;;;;61.70;21.38;;;;;;;;;;4986782;28;20018;-67
2023/12/14 05:38:19;;;;;;;67.65;23.23;;;;;;;;;;4983817;28;20022;-67
2023/12/14 05:40:45;;;;;;;66.93;21.60;;;;;;;;;;4979320;28;20029;-67
2023/12/14 05:43:10;;;;;;;58.13;22.00;;;;;;;;;;4987040;28;20119;-66
2023/12/14 05:45:35;;;;;;;72.70;22.23;;;;;;;;;;4985023;28;20022;-67
2023/12/14 05:48:01;;;;;;;65.90;21.33;;;;;;;;;;4988054;28;20378;-67
2023/12/14 05:50:27;;;;;;;64.65;20.77;;;;;;;;;;4989496;28;20257;-67
2023/12/14 05:52:52;;;;;;;70.63;21.58;;;;;;;;;;4980433;28;20034;-67
2023/12/14 05:55:21;;;;;;;60.65;21.42;;;;;;;;;;4984583;28;20034;-66
2023/12/14 05:57:47;;;;;;;65.18;21.48;;;;;;;;;;4989496;28;20022;-67
2023/12/14 06:00:13;;;;;;;72.32;22.85;;;;;;;;;;4989757;28;20049;-66
2023/12/14 06:02:38;;;;;;;74.38;25.00;;;;;;;;;;4988742;28;20068;-67
2023/12/14 06:05:03;;;;;;;80.82;25.75;;;;;;;;;;4982470;28;20038;-67
2023/12/14 06:07:28;;;;;;;88.35;28.75;;;;;;;;;;4979444;28;20010;-67
2023/12/14 06:09:54;;;;;;;89.67;29.53;;;;;;;;;;4982193;28;20019;-67
2023/12/14 06:12:19;;;;;;;94.07;27.30;;;;;;;;;;4987786;28;20337;-67
2023/12/14 06:14:44;;;;;;;88.88;29.65;;;;;;;;;;4985493;28;20026;-67
2023/12/14 06:17:10;;;;;;;94.07;29.52;;;;;;;;;;4984597;28;20033;-67
2023/12/14 06:19:35;;;;;;;99.65;25.40;;;;;;;;;;4988259;28;20030;-67
2023/12/14 06:22:00;;;;;;;91.13;25.97;;;;;;;;;;4989035;28;20023;-67
2023/12/14 06:24:25;;;;;;;76.30;24.88;;;;;;;;;;4982015;28;20324;-67
2023/12/14 06:26:51;;;;;;;80.20;26.95;;;;;;;;;;4987576;28;20098;-67
2023/12/14 06:29:16;;;;;;;83.03;25.90;;;;;;;;;;4978942;28;20033;-67
2023/12/14 06:31:41;;;;;;;96.68;29.08;;;;;;;;;;4979437;28;20697;-67
2023/12/14 06:34:07;;;;;;;84.63;26.70;;;;;;;;;;4982911;28;20037;-67
2023/12/14 06:36:32;;;;;;;82.53;26.00;;;;;;;;;;4977612;28;20034;-67
2023/12/14 06:38:58;;;;;;;64.15;22.48;;;;;;;;;;4980349;28;20018;-67
2023/12/14 06:41:25;;;;;;;90.18;24.38;;;;;;;;;;4985757;28;20034;-67
2023/12/14 06:43:50;;;;;;;76.05;23.27;;;;;;;;;;4980459;28;20027;-68
2023/12/14 06:46:15;;;;;;;68.55;20.20;;;;;;;;;;4982101;28;20500;-68
2023/12/14 06:48:41;;;;;;;71.75;22.50;;;;;;;;;;4986665;28;20037;-68
2023/12/14 06:51:06;;;;;;;70.53;22.10;;;;;;;;;;4984650;28;20176;-68
2023/12/14 06:53:31;;;;;;;69.15;22.17;;;;;;;;;;4982740;28;20097;-68
2023/12/14 06:55:56;;;;;;;68.03;21.45;;;;;;;;;;4982534;28;20025;-66
2023/12/14 06:58:22;;;;;;;65.73;22.23;;;;;;;;;;4978755;28;20029;-67
2023/12/14 07:00:47;;;;;;;61.97;21.33;;;;;;;;;;4986181;28;20289;-66
2023/12/14 07:03:12;;;;;;;68.93;20.10;;;;;;;;;;4985210;28;20261;-67
2023/12/14 07:05:38;;;;;;;62.63;23.45;;;;;;;;;;4985264;28;20019;-67
2023/12/14 07:08:03;;;;;;;82.88;25.73;;;;;;;;;;4987710;28;20015;-67
2023/12/14 07:10:29;;;;;;;68.32;22.00;;;;;;;;;;4984360;28;20023;-66
2023/12/14 07:12:54;;;;;;;74.73;25.13;;;;;;;;;;4979431;28;20114;-66
2023/12/14 07:15:19;;;;;;;64.90;22.03;;;;;;;;;;4982057;28;20273;-67
2023/12/14 07:17:44;;;;;;;72.43;23.33;;;;;;;;;;4986124;28;20308;-67
2023/12/14 07:20:10;;;;;;;72.50;22.38;;;;;;;;;;4985551;28;20276;-67
2023/12/14 07:22:35;;;;;;;59.25;21.90;;;;;;;;;;4984420;28;20057;-67
2023/12/14 07:25:00;;;;;;;78.38;21.30;;;;;;;;;;4985205;28;20077;-67
2023/12/14 07:27:25;;;;;;;76.30;25.07;;;;;;;;;;4981192;28;20018;-68
2023/12/14 07:29:50;;;;;;;65.80;21.60;;;;;;;;;;4977478;28;20357;-68
2023/12/14 07:32:16;;;;;;;62.37;21.70;;;;;;;;;;4983898;28;20023;-68
2023/12/14 07:34:41;;;;;;;67.00;22.92;;;;;;;;;;4984620;28;20813;-68
2023/12/14 07:37:06;;;;;;;71.03;21.83;;;;;;;;;;4985539;28;20326;-68
2023/12/14 07:39:31;;;;;;;68.13;21.75;;;;;;;;;;4984721;28;20272;-68
2023/12/14 07:41:57;;;;;;;69.18;21.23;;;;;;;;;;4985137;28;20022;-68
2023/12/14 07:44:22;;;;;;;63.72;20.65;;;;;;;;;;4984072;28;20553;-68
2023/12/14 07:46:48;;;;;;;63.33;20.98;;;;;;;;;;4981088;28;20022;-68
2023/12/14 07:49:13;;;;;;;72.25;21.67;;;;;;;;;;4987988;28;20163;-68
2023/12/14 07:51:38;;;;;;;66.60;21.73;;;;;;;;;;4989291;28;20018;-68
2023/12/14 07:54:04;;;;;;;52.17;18.77;;;;;;;;;;4988360;28;20027;-68
2023/12/14 07:56:29;;;;;;;47.55;16.88;;;;;;;;;;4986597;28;20023;-68
2023/12/14 07:58:54;;;;;;;44.30;16.23;;;;;;;;;;4988132;28;20029;-68
2023/12/14 08:01:20;;;;;;;47.50;16.40;;;;;;;;;;4987041;28;20024;-68
2023/12/14 08:03:46;;;;;;;44.50;14.05;;;;;;;;;;4982157;28;20031;-68
2023/12/14 08:06:11;;;;;;;48.15;14.77;;;;;;;;;;4983670;28;20084;-68
2023/12/14 08:08:37;;;;;;;55.57;16.47;;;;;;;;;;4986266;28;20019;-68
2023/12/14 08:11:03;;;;;;;44.42;15.20;;;;;;;;;;4988008;28;20432;-68
2023/12/14 08:13:28;;;;;;;50.13;16.23;;;;;;;;;;4986285;28;20081;-68
2023/12/14 08:15:53;;;;;;;46.00;16.07;;;;;;;;;;4981545;28;20713;-68
2023/12/14 08:18:18;;;;;;;51.58;16.90;;;;;;;;;;4986449;28;20253;-68
2023/12/14 08:20:43;;;;;;;75.05;23.27;;;;;;;;;;4988035;28;20050;-68
2023/12/14 08:23:09;;;;;;;56.00;16.95;;;;;;;;;;4987093;28;20101;-68
2023/12/14 08:25:34;;;;;;;57.45;16.65;;;;;;;;;;4985053;28;20523;-68
2023/12/14 08:27:59;;;;;;;62.53;18.57;;;;;;;;;;4987221;28;20025;-68
2023/12/14 08:30:24;;;;;;;56.20;18.10;;;;;;;;;;4982921;28;20262;-68
2023/12/14 08:32:49;;;;;;;64.80;18.70;;;;;;;;;;4986898;28;20300;-68
2023/12/14 08:35:14;;;;;;;58.17;18.63;;;;;;;;;;4986155;28;20258;-68
2023/12/14 08:37:40;;;;;;;67.47;19.42;;;;;;;;;;4985538;28;20277;-68
2023/12/14 08:40:05;;;;;;;68.13;19.47;;;;;;;;;;4984866;28;20046;-68
2023/12/14 08:42:30;;;;;;;71.20;19.65;;;;;;;;;;4983745;28;20265;-68
2023/12/14 08:44:56;;;;;;;79.57;23.15;;;;;;;;;;4983779;28;20018;-68
2023/12/14 08:47:21;;;;;;;65.18;21.33;;;;;;;;;;4985201;28;20026;-68
2023/12/14 08:49:46;;;;;;;80.90;21.63;;;;;;;;;;4985469;28;20027;-69
2023/12/14 08:52:11;;;;;;;77.00;21.90;;;;;;;;;;4986077;28;20261;-69
2023/12/14 08:54:37;;;;;;;78.47;22.15;;;;;;;;;;4985678;28;20262;-69
2023/12/14 08:57:02;;;;;;;72.97;22.60;;;;;;;;;;4982889;28;20054;-67
2023/12/14 08:59:27;;;;;;;76.50;22.83;;;;;;;;;;4985172;28;20545;-69
2023/12/14 09:01:52;;;;;;;79.80;22.50;;;;;;;;;;4984868;28;20022;-67
2023/12/14 09:04:18;;;;;;;68.03;20.52;;;;;;;;;;4984305;28;20027;-67
2023/12/14 09:06:44;;;;;;;81.37;22.67;;;;;;;;;;4984145;28;20022;-69
2023/12/14 09:09:10;;;;;;;81.07;23.35;;;;;;;;;;4985756;28;20285;-69
2023/12/14 09:11:36;;;;;;;78.53;24.33;;;;;;;;;;4983540;28;20053;-69
2023/12/14 09:14:02;;;;;;;81.43;24.25;;;;;;;;;;4984856;28;20474;-69
2023/12/14 09:16:27;;;;;;;86.97;25.75;;;;;;;;;;4985459;28;20393;-67
2023/12/14 09:18:52;;;;;;;75.80;27.23;;;;;;;;;;4984751;28;20031;-69
2023/12/14 09:21:18;;;;;;;86.57;26.13;;;;;;;;;;4984468;28;20022;-69
2023/12/14 09:23:43;;;;;;;86.13;27.25;;;;;;;;;;4982958;28;20254;-67
2023/12/14 09:26:08;;;;;;;73.50;24.90;;;;;;;;;;4985109;28;20022;-67
2023/12/14 09:28:33;;;;;;;77.97;24.67;;;;;;;;;;4983985;28;20273;-69
2023/12/14 09:30:58;;;;;;;84.57;25.40;;;;;;;;;;4982429;28;20336;-69
2023/12/14 09:33:23;;;;;;;73.30;23.63;;;;;;;;;;4982850;28;20262;-69
2023/12/14 09:35:48;;;;;;;80.07;24.33;;;;;;;;;;4983779;28;20286;-69
2023/12/14 09:38:17;;;;;;;85.70;25.20;;;;;;;;;;4984420;28;20331;-69
2023/12/14 09:40:43;;;;;;;74.88;22.40;;;;;;;;;;4984721;28;20037;-69
2023/12/14 09:43:08;;;;;;;78.28;23.33;;;;;;;;;;4983592;28;20429;-68
2023/12/14 09:45:34;;;;;;;74.00;23.00;;;;;;;;;;4985544;28;20022;-68
2023/12/14 09:48:00;;;;;;;87.30;26.08;;;;;;;;;;4985205;28;20473;-69
2023/12/14 09:50:25;;;;;;;87.90;26.50;;;;;;;;;;4982141;28;20252;-68
2023/12/14 09:52:51;;;;;;;99.00;28.42;;;;;;;;;;4982903;28;20145;-68
2023/12/14 09:55:16;;;;;;;112.20;29.60;;;;;;;;;;4981808;28;20027;-68
2023/12/14 09:57:41;;;;;;;108.95;29.67;;;;;;;;;;4981597;28;20031;-69
2023/12/14 10:00:10;;;;;;;111.83;29.20;;;;;;;;;;4984498;28;20027;-68
2023/12/14 10:02:35;;;;;;;97.13;28.42;;;;;;;;;;4982659;28;20757;-68
2023/12/14 10:05:01;;;;;;;95.90;27.52;;;;;;;;;;4981155;28;20030;-68
2023/12/14 10:07:26;;;;;;;109.18;29.67;;;;;;;;;;4981145;28;20022;-69
2023/12/14 10:09:52;;;;;;;111.68;29.17;;;;;;;;;;4980918;28;20027;-68
2023/12/14 10:12:18;;;;;;;114.30;31.23;;;;;;;;;;4984740;28;20014;-69
2023/12/14 10:14:43;;;;;;;119.47;31.25;;;;;;;;;;4981503;28;20530;-69
2023/12/14 10:17:17;;;;;;;93.93;28.27;;;;;;;;;;4986797;28;20026;-68
2023/12/14 10:19:43;;;;;;;106.45;29.30;;;;;;;;;;4980348;28;20289;-68
2023/12/14 10:22:08;;;;;;;112.47;31.10;;;;;;;;;;4983010;28;20544;-69
2023/12/14 10:24:33;;;;;;;110.28;33.03;;;;;;;;;;4977619;28;20106;-69
2023/12/14 10:26:59;;;;;;;103.18;30.23;;;;;;;;;;4981798;28;20498;-68
2023/12/14 10:29:24;;;;;;;118.60;32.90;;;;;;;;;;4981208;28;20055;-69
2023/12/14 10:31:49;;;;;;;112.18;30.73;;;;;;;;;;4985637;28;20065;-69
2023/12/14 10:34:15;;;;;;;111.50;31.55;;;;;;;;;;4983919;28;20015;-69
2023/12/14 10:36:40;;;;;;;111.07;30.05;;;;;;;;;;4982940;28;20030;-69
2023/12/14 10:39:08;;;;;;;107.00;29.92;;;;;;;;;;4984630;28;20022;-69
2023/12/14 10:41:33;;;;;;;107.50;32.92;;;;;;;;;;4962128;28;20049;-69
2023/12/14 10:44:00;;;;;;;128.10;34.42;;;;;;;;;;4981278;28;20393;-68
2023/12/14 10:46:25;;;;;;;135.68;45.65;;;;;;;;;;4981700;28;20034;-68
2023/12/14 10:48:51;;;;;;;120.53;33.33;;;;;;;;;;4986205;28;20021;-68
2023/12/14 10:51:24;;;;;;;138.57;44.58;;;;;;;;;;4981577;28;20568;-68
2023/12/14 10:53:49;;;;;;;116.50;36.28;;;;;;;;;;4981003;28;20018;-68
2023/12/14 10:56:15;;;;;;;128.73;35.80;;;;;;;;;;4985769;28;20025;-68
2023/12/14 10:58:48;;;;;;;133.75;41.75;;;;;;;;;;4983109;28;20019;-68
2023/12/14 11:01:18;;;;;;;116.95;34.05;;;;;;;;;;4980963;28;20410;-69
2023/12/14 11:03:44;;;;;;;137.52;40.63;;;;;;;;;;4985904;28;20420;-69
2023/12/14 11:06:24;;;;;;;109.25;35.78;;;;;;;;;;4984884;28;20031;-68
2023/12/14 11:08:52;;;;;;;116.75;34.50;;;;;;;;;;4979604;28;20103;-69
2023/12/14 11:11:20;;;;;;;122.60;36.35;;;;;;;;;;4978642;28;20081;-68
2023/12/14 11:13:46;;;;;;;102.30;29.90;;;;;;;;;;4983343;28;20037;-68
2023/12/14 11:16:11;;;;;;;106.50;32.65;;;;;;;;;;4976500;28;20045;-69
2023/12/14 11:18:36;;;;;;;87.72;28.52;;;;;;;;;;4981820;28;20486;-68
2023/12/14 11:21:01;;;;;;;79.37;26.87;;;;;;;;;;4982986;28;20379;-68
2023/12/14 11:23:29;;;;;;;77.47;25.05;;;;;;;;;;4985266;28;20254;-68
2023/12/14 11:25:59;;;;;;;89.20;26.05;;;;;;;;;;4980577;28;20101;-68
2023/12/14 11:28:24;;;;;;;74.10;23.47;;;;;;;;;;4987321;28;20019;-68
2023/12/14 11:30:49;;;;;;;77.97;23.15;;;;;;;;;;4983918;28;20018;-68
2023/12/14 11:33:16;;;;;;;73.45;23.33;;;;;;;;;;4990679;28;20069;-69
2023/12/14 11:35:41;;;;;;;63.28;22.75;;;;;;;;;;4985558;28;20021;-68
2023/12/14 11:38:15;;;;;;;75.80;25.00;;;;;;;;;;4984297;28;20022;-69
2023/12/14 11:40:41;;;;;;;69.53;24.63;;;;;;;;;;4986768;28;20027;-69
2023/12/14 11:43:07;;;;;;;78.38;22.35;;;;;;;;;;4989662;28;20031;-68
2023/12/14 11:45:33;;;;;;;76.88;27.00;;;;;;;;;;4985858;28;20042;-69
2023/12/14 11:47:58;;;;;;;73.35;22.88;;;;;;;;;;4965190;28;20451;-68
2023/12/14 11:50:23;;;;;;;77.20;25.90;;;;;;;;;;4986133;28;20397;-68
2023/12/14 11:52:49;;;;;;;67.57;25.30;;;;;;;;;;4986511;28;20258;-69
2023/12/14 11:55:14;;;;;;;75.10;23.92;;;;;;;;;;4986086;28;20817;-67
2023/12/14 11:57:39;;;;;;;89.30;33.67;;;;;;;;;;4984110;28;20034;-67
2023/12/14 12:00:06;;;;;;;79.22;29.55;;;;;;;;;;4984254;28;20261;-67
2023/12/14 12:02:32;;;;;;;86.03;30.48;;;;;;;;;;4979744;28;20089;-67
2023/12/14 12:04:57;;;;;;;86.70;26.80;;;;;;;;;;4981699;28;20023;-69
2023/12/14 12:07:22;;;;;;;81.83;27.60;;;;;;;;;;4986501;28;20080;-69
2023/12/14 12:09:48;;;;;;;83.53;26.02;;;;;;;;;;4984446;28;20269;-69
2023/12/14 12:12:13;;;;;;;77.53;26.13;;;;;;;;;;4985333;28;20025;-69
2023/12/14 12:14:41;;;;;;;75.75;23.65;;;;;;;;;;4981325;28;20050;-69
2023/12/14 12:17:07;;;;;;;83.28;27.45;;;;;;;;;;4987989;28;20046;-69
2023/12/14 12:19:32;;;;;;;82.95;28.13;;;;;;;;;;4988178;28;20049;-69
2023/12/14 12:21:58;;;;;;;74.85;27.77;;;;;;;;;;4984392;28;20398;-69
2023/12/14 12:24:23;;;;;;;72.90;26.98;;;;;;;;;;4989940;28;20022;-69
2023/12/14 12:26:48;;;;;;;73.15;26.73;;;;;;;;;;4981526;28;20015;-69
2023/12/14 12:29:13;;;;;;;70.50;25.15;;;;;;;;;;4985445;28;20026;-69
2023/12/14 12:31:39;;;;;;;77.63;25.57;;;;;;;;;;4982843;28;20019;-69
2023/12/14 12:34:05;;;;;;;76.10;23.50;;;;;;;;;;4981543;28;20269;-69
2023/12/14 12:36:30;;;;;;;66.07;24.30;;;;;;;;;;4986065;28;20031;-69
2023/12/14 12:38:55;;;;;;;67.07;23.10;;;;;;;;;;4986145;28;20093;-69
2023/12/14 12:41:20;;;;;;;73.27;22.87;;;;;;;;;;4981754;28;20254;-69
2023/12/14 12:43:45;;;;;;;74.68;24.30;;;;;;;;;;4983731;28;20262;-69
2023/12/14 12:46:11;;;;;;;67.23;22.57;;;;;;;;;;4985039;28;20038;-69
2023/12/14 12:48:36;;;;;;;76.07;24.53;;;;;;;;;;4980113;28;20258;-69
2023/12/14 12:51:01;;;;;;;62.13;20.95;;;;;;;;;;4982362;28;20324;-69
2023/12/14 12:53:26;;;;;;;65.80;20.60;;;;;;;;;;4989345;28;20022;-69
2023/12/14 12:55:51;;;;;;;61.42;22.48;;;;;;;;;;4984976;28;20821;-69
2023/12/14 12:58:17;;;;;;;57.03;20.60;;;;;;;;;;4976146;28;20045;-69
2023/12/14 13:00:42;;;;;;;59.27;21.07;;;;;;;;;;4984782;28;20349;-69
2023/12/14 13:03:07;;;;;;;61.07;21.40;;;;;;;;;;4982918;28;20288;-69
2023/12/14 13:05:32;;;;;;;58.00;19.30;;;;;;;;;;4981911;28;20381;-69
2023/12/14 13:07:58;;;;;;;58.90;21.23;;;;;;;;;;4980752;28;20266;-69
2023/12/14 13:10:26;;;;;;;60.63;21.70;;;;;;;;;;4976227;28;20366;-69
2023/12/14 13:12:52;;;;;;;61.92;22.13;;;;;;;;;;4978831;28;20581;-69
2023/12/14 13:15:18;;;;;;;51.80;19.90;;;;;;;;;;4984350;28;20114;-69
2023/12/14 13:17:44;;;;;;;62.05;20.52;;;;;;;;;;4978395;28;20026;-69
2023/12/14 13:20:09;;;;;;;50.05;18.23;;;;;;;;;;4982673;28;20393;-69
2023/12/14 13:22:34;;;;;;;50.28;19.27;;;;;;;;;;4966541;28;20019;-69
2023/12/14 13:25:00;;;;;;;50.97;17.70;;;;;;;;;;4978905;28;20491;-69
2023/12/14 13:27:25;;;;;;;38.65;16.25;;;;;;;;;;4980463;28;20011;-69
2023/12/14 13:29:50;;;;;;;37.13;14.02;;;;;;;;;;4979706;28;20025;-67
2023/12/14 13:32:15;;;;;;;31.73;11.30;;;;;;;;;;4984245;28;20754;-67
2023/12/14 13:34:40;;;;;;;30.13;11.93;;;;;;;;;;4984356;28;20478;-67
2023/12/14 13:37:08;;;;;;;31.08;11.70;;;;;;;;;;4985093;28;20066;-67
2023/12/14 13:39:34;;;;;;;26.67;10.27;;;;;;;;;;4984071;28;20113;-68
2023/12/14 13:41:59;;;;;;;25.83;10.77;;;;;;;;;;4983954;28;20022;-68
2023/12/14 13:44:25;;;;;;;26.93;11.70;;;;;;;;;;4981059;28;20042;-68
2023/12/14 13:46:50;;;;;;;24.50;10.83;;;;;;;;;;4981506;28;20349;-68
2023/12/14 13:49:15;;;;;;;28.05;10.93;;;;;;;;;;4981217;28;20609;-68
2023/12/14 13:51:40;;;;;;;32.50;10.83;;;;;;;;;;4978329;28;20067;-69
2023/12/14 13:54:05;;;;;;;26.17;10.53;;;;;;;;;;4979482;28;20333;-68
2023/12/14 13:56:30;;;;;;;27.20;9.52;;;;;;;;;;4984297;28;20405;-68
2023/12/14 13:58:56;;;;;;;23.57;8.60;;;;;;;;;;4982151;28;20681;-68
2023/12/14 14:01:21;;;;;;;19.60;9.23;;;;;;;;;;4981296;28;20254;-69
2023/12/14 14:03:46;;;;;;;21.40;9.40;;;;;;;;;;4981239;28;20636;-68
2023/12/14 14:06:12;;;;;;;29.27;10.27;;;;;;;;;;4983410;28;20022;-69